TAF Text Data
IDs:
Format:
Raw Decoded Include METAR

Data at: 0734 UTC 24 Jan 2019

KOLS 240654Z AUTO 13003KT 10SM CLR 00/M11 A3016 RMK AO2 SLP198 T00001106 401501044

KOLS 240520Z 2406/2506 VRB04KT P6SM SKC
  FM241900 35006KT P6SM SKC
  FM250200 05004KT P6SM FEW250